sensor_id;sensor_type;location;lat;lon;timestamp;noise_LAeq;noise_LA_min;noise_LA_max;noise_LA01;noise_LA95
71628;Laerm;59477;52.374;9.916;2023-05-10T00:00:36;40.00;35.96;49.09;;
71628;Laerm;59477;52.374;9.916;2023-05-10T00:02:55;41.09;36.20;49.59;;
71628;Laerm;59477;52.374;9.916;2023-05-10T00:05:14;43.79;35.65;51.55;;
71628;Laerm;59477;52.374;9.916;2023-05-10T00:07:14;38.96;32.93;59.46;;
71628;Laerm;59477;52.374;9.916;2023-05-10T00:09:17;36.89;31.77;48.08;;
71628;Laerm;59477;52.374;9.916;2023-05-10T00:11:36;49.30;33.72;59.77;;
71628;Laerm;59477;52.374;9.916;2023-05-10T00:13:36;39.43;33.68;52.22;;
71628;Laerm;59477;52.374;9.916;2023-05-10T00:15:37;48.58;33.50;58.00;;
71628;Laerm;59477;52.374;9.916;2023-05-10T00:17:37;39.22;33.67;51.43;;
71628;Laerm;59477;52.374;9.916;2023-05-10T00:19:38;41.93;34.33;52.01;;
71628;Laerm;59477;52.374;9.916;2023-05-10T00:21:38;36.75;32.97;43.72;;
71628;Laerm;59477;52.374;9.916;2023-05-10T00:23:39;37.21;32.97;46.00;;
71628;Laerm;59477;52.374;9.916;2023-05-10T00:25:58;40.62;34.62;48.93;;
71628;Laerm;59477;52.374;9.916;2023-05-10T00:27:58;47.88;34.64;60.71;;
71628;Laerm;59477;52.374;9.916;2023-05-10T00:30:01;36.12;32.37;44.38;;
71628;Laerm;59477;52.374;9.916;2023-05-10T00:32:02;38.61;32.34;47.63;;
71628;Laerm;59477;52.374;9.916;2023-05-10T00:34:02;48.99;37.90;57.39;;
71628;Laerm;59477;52.374;9.916;2023-05-10T00:36:03;46.83;35.32;58.52;;
71628;Laerm;59477;52.374;9.916;2023-05-10T00:38:03;40.23;34.29;47.15;;
71628;Laerm;59477;52.374;9.916;2023-05-10T00:40:22;50.46;35.17;61.02;;
71628;Laerm;59477;52.374;9.916;2023-05-10T00:42:23;47.61;33.77;57.95;;
71628;Laerm;59477;52.374;9.916;2023-05-10T00:44:41;43.39;33.85;52.62;;
71628;Laerm;59477;52.374;9.916;2023-05-10T00:46:42;45.59;37.37;53.49;;
71628;Laerm;59477;52.374;9.916;2023-05-10T00:48:43;48.56;33.92;58.36;;
71628;Laerm;59477;52.374;9.916;2023-05-10T00:50:43;37.77;32.64;51.94;;
71628;Laerm;59477;52.374;9.916;2023-05-10T00:52:44;43.22;34.69;53.20;;
71628;Laerm;59477;52.374;9.916;2023-05-10T00:54:45;42.07;35.34;51.24;;
71628;Laerm;59477;52.374;9.916;2023-05-10T00:57:05;40.92;35.65;48.95;;
71628;Laerm;59477;52.374;9.916;2023-05-10T00:59:24;48.54;37.42;57.39;;
71628;Laerm;59477;52.374;9.916;2023-05-10T01:01:24;43.25;35.68;56.32;;
71628;Laerm;59477;52.374;9.916;2023-05-10T01:03:43;49.99;41.00;59.14;;
71628;Laerm;59477;52.374;9.916;2023-05-10T01:06:02;47.36;38.11;57.08;;
71628;Laerm;59477;52.374;9.916;2023-05-10T01:08:22;46.38;36.23;57.91;;
71628;Laerm;59477;52.374;9.916;2023-05-10T01:10:41;44.53;38.18;53.58;;
71628;Laerm;59477;52.374;9.916;2023-05-10T01:12:43;46.45;38.57;53.73;;
71628;Laerm;59477;52.374;9.916;2023-05-10T01:14:45;43.78;37.79;54.61;;
71628;Laerm;59477;52.374;9.916;2023-05-10T01:16:47;43.17;37.50;50.10;;
71628;Laerm;59477;52.374;9.916;2023-05-10T01:19:11;42.78;37.13;53.47;;
71628;Laerm;59477;52.374;9.916;2023-05-10T01:21:23;44.32;37.97;55.86;;
71628;Laerm;59477;52.374;9.916;2023-05-10T01:23:50;40.77;34.55;50.32;;
71628;Laerm;59477;52.374;9.916;2023-05-10T01:33:09;45.82;35.94;52.27;;
71628;Laerm;59477;52.374;9.916;2023-05-10T01:37:46;40.76;36.28;48.80;;
71628;Laerm;59477;52.374;9.916;2023-05-10T01:40:06;39.95;35.87;47.44;;
71628;Laerm;59477;52.374;9.916;2023-05-10T01:42:10;40.90;35.97;48.24;;
71628;Laerm;59477;52.374;9.916;2023-05-10T01:46:35;41.25;36.10;52.17;;
71628;Laerm;59477;52.374;9.916;2023-05-10T01:48:40;45.60;36.07;55.10;;
71628;Laerm;59477;52.374;9.916;2023-05-10T01:50:46;43.92;37.19;51.95;;
71628;Laerm;59477;52.374;9.916;2023-05-10T01:52:53;46.29;38.41;52.78;;
71628;Laerm;59477;52.374;9.916;2023-05-10T01:54:56;50.70;38.69;59.95;;
71628;Laerm;59477;52.374;9.916;2023-05-10T01:57:00;42.58;34.99;57.04;;
71628;Laerm;59477;52.374;9.916;2023-05-10T01:59:06;40.40;35.78;50.32;;
71628;Laerm;59477;52.374;9.916;2023-05-10T02:01:27;50.51;38.88;59.12;;
71628;Laerm;59477;52.374;9.916;2023-05-10T02:03:28;43.65;37.77;55.08;;
71628;Laerm;59477;52.374;9.916;2023-05-10T02:05:31;49.94;39.58;57.85;;
71628;Laerm;59477;52.374;9.916;2023-05-10T02:07:33;39.94;36.57;45.67;;
71628;Laerm;59477;52.374;9.916;2023-05-10T02:09:34;39.65;35.96;45.20;;
71628;Laerm;59477;52.374;9.916;2023-05-10T02:11:35;50.58;38.89;65.26;;
71628;Laerm;59477;52.374;9.916;2023-05-10T02:13:38;41.22;37.09;51.93;;
71628;Laerm;59477;52.374;9.916;2023-05-10T02:15:58;51.24;37.24;62.32;;
71628;Laerm;59477;52.374;9.916;2023-05-10T02:17:59;44.64;37.85;53.39;;
71628;Laerm;59477;52.374;9.916;2023-05-10T02:20:18;41.13;36.46;50.70;;
71628;Laerm;59477;52.374;9.916;2023-05-10T02:22:19;48.96;37.52;59.36;;
71628;Laerm;59477;52.374;9.916;2023-05-10T02:24:20;46.11;37.09;59.51;;
71628;Laerm;59477;52.374;9.916;2023-05-10T02:26:22;41.18;36.09;49.95;;
71628;Laerm;59477;52.374;9.916;2023-05-10T02:28:24;42.03;36.89;51.41;;
71628;Laerm;59477;52.374;9.916;2023-05-10T02:30:25;48.74;38.11;56.86;;
71628;Laerm;59477;52.374;9.916;2023-05-10T02:32:26;43.92;38.94;51.19;;
71628;Laerm;59477;52.374;9.916;2023-05-10T02:34:27;46.69;38.68;54.84;;
71628;Laerm;59477;52.374;9.916;2023-05-10T02:36:47;47.47;40.85;56.36;;
71628;Laerm;59477;52.374;9.916;2023-05-10T02:39:06;46.78;40.42;59.12;;
71628;Laerm;59477;52.374;9.916;2023-05-10T02:41:28;57.89;40.24;72.76;;
71628;Laerm;59477;52.374;9.916;2023-05-10T02:43:34;57.66;40.68;73.04;;
71628;Laerm;59477;52.374;9.916;2023-05-10T02:45:35;56.21;41.42;72.74;;
71628;Laerm;59477;52.374;9.916;2023-05-10T02:47:36;49.29;41.24;59.08;;
71628;Laerm;59477;52.374;9.916;2023-05-10T02:49:38;53.73;39.36;73.80;;
71628;Laerm;59477;52.374;9.916;2023-05-10T02:51:40;55.97;39.83;73.33;;
71628;Laerm;59477;52.374;9.916;2023-05-10T02:54:03;56.88;39.42;73.57;;
71628;Laerm;59477;52.374;9.916;2023-05-10T02:56:11;53.78;39.84;71.63;;
71628;Laerm;59477;52.374;9.916;2023-05-10T02:58:13;55.24;38.66;71.56;;
71628;Laerm;59477;52.374;9.916;2023-05-10T03:00:14;49.77;41.29;71.17;;
71628;Laerm;59477;52.374;9.916;2023-05-10T03:02:15;58.42;40.78;76.92;;
71628;Laerm;59477;52.374;9.916;2023-05-10T03:04:15;52.59;41.60;74.27;;
71628;Laerm;59477;52.374;9.916;2023-05-10T03:06:16;47.74;39.45;57.73;;
71628;Laerm;59477;52.374;9.916;2023-05-10T03:08:16;49.95;39.09;70.68;;
71628;Laerm;59477;52.374;9.916;2023-05-10T03:10:18;51.85;39.48;72.08;;
71628;Laerm;59477;52.374;9.916;2023-05-10T03:16:25;52.79;40.20;72.36;;
71628;Laerm;59477;52.374;9.916;2023-05-10T03:20:47;47.98;39.70;60.15;;
71628;Laerm;59477;52.374;9.916;2023-05-10T03:22:50;54.07;40.99;73.03;;
71628;Laerm;59477;52.374;9.916;2023-05-10T03:24:53;55.19;40.98;75.12;;
71628;Laerm;59477;52.374;9.916;2023-05-10T03:26:55;54.53;40.92;70.38;;
71628;Laerm;59477;52.374;9.916;2023-05-10T03:28:57;52.43;42.69;72.53;;
71628;Laerm;59477;52.374;9.916;2023-05-10T03:30:59;51.04;41.59;63.03;;
71628;Laerm;59477;52.374;9.916;2023-05-10T03:33:08;52.43;43.69;61.16;;
71628;Laerm;59477;52.374;9.916;2023-05-10T03:35:09;50.43;41.09;61.69;;
71628;Laerm;59477;52.374;9.916;2023-05-10T03:37:10;49.76;41.71;58.83;;
71628;Laerm;59477;52.374;9.916;2023-05-10T03:39:12;50.56;41.84;66.42;;
71628;Laerm;59477;52.374;9.916;2023-05-10T03:41:13;48.42;42.38;66.42;;
71628;Laerm;59477;52.374;9.916;2023-05-10T03:43:14;50.91;43.05;61.60;;
71628;Laerm;59477;52.374;9.916;2023-05-10T03:45:15;51.53;42.99;69.00;;
71628;Laerm;59477;52.374;9.916;2023-05-10T03:47:16;52.56;43.10;68.14;;
71628;Laerm;59477;52.374;9.916;2023-05-10T03:49:16;51.02;41.61;72.14;;
71628;Laerm;59477;52.374;9.916;2023-05-10T03:51:35;53.71;41.34;74.28;;
71628;Laerm;59477;52.374;9.916;2023-05-10T03:53:36;48.11;42.12;62.62;;
71628;Laerm;59477;52.374;9.916;2023-05-10T03:55:36;48.65;41.58;64.72;;
71628;Laerm;59477;52.374;9.916;2023-05-10T03:57:37;49.52;42.50;63.05;;
71628;Laerm;59477;52.374;9.916;2023-05-10T03:59:38;51.37;45.12;70.93;;
71628;Laerm;59477;52.374;9.916;2023-05-10T04:01:38;51.32;43.69;67.53;;
71628;Laerm;59477;52.374;9.916;2023-05-10T04:03:40;50.65;44.26;72.50;;
71628;Laerm;59477;52.374;9.916;2023-05-10T04:06:01;53.73;43.31;69.93;;
71628;Laerm;59477;52.374;9.916;2023-05-10T04:08:02;53.99;43.28;68.45;;
71628;Laerm;59477;52.374;9.916;2023-05-10T04:10:03;52.12;44.02;65.89;;
71628;Laerm;59477;52.374;9.916;2023-05-10T04:12:04;53.30;44.02;64.36;;
71628;Laerm;59477;52.374;9.916;2023-05-10T04:14:04;51.15;43.40;63.45;;
71628;Laerm;59477;52.374;9.916;2023-05-10T04:16:05;48.90;43.82;62.22;;
71628;Laerm;59477;52.374;9.916;2023-05-10T04:18:06;56.48;44.53;69.77;;
71628;Laerm;59477;52.374;9.916;2023-05-10T04:20:06;49.80;44.07;63.84;;
71628;Laerm;59477;52.374;9.916;2023-05-10T04:22:07;48.74;44.34;62.64;;
71628;Laerm;59477;52.374;9.916;2023-05-10T04:24:08;48.42;43.42;61.22;;
71628;Laerm;59477;52.374;9.916;2023-05-10T04:26:08;50.59;43.57;68.11;;
71628;Laerm;59477;52.374;9.916;2023-05-10T04:28:27;49.18;44.13;68.48;;
71628;Laerm;59477;52.374;9.916;2023-05-10T04:30:28;51.65;46.35;68.13;;
71628;Laerm;59477;52.374;9.916;2023-05-10T04:32:29;51.81;44.59;72.36;;
71628;Laerm;59477;52.374;9.916;2023-05-10T04:34:30;51.82;46.28;75.71;;
71628;Laerm;59477;52.374;9.916;2023-05-10T04:36:30;51.15;45.03;70.96;;
71628;Laerm;59477;52.374;9.916;2023-05-10T04:38:32;51.12;45.34;69.62;;
71628;Laerm;59477;52.374;9.916;2023-05-10T04:40:33;51.57;45.55;69.88;;
71628;Laerm;59477;52.374;9.916;2023-05-10T04:42:34;51.72;45.82;70.48;;
71628;Laerm;59477;52.374;9.916;2023-05-10T04:44:35;50.24;45.02;68.11;;
71628;Laerm;59477;52.374;9.916;2023-05-10T04:46:36;52.55;46.81;71.79;;
71628;Laerm;59477;52.374;9.916;2023-05-10T04:48:55;50.89;45.13;75.37;;
71628;Laerm;59477;52.374;9.916;2023-05-10T04:50:55;50.10;45.47;71.30;;
71628;Laerm;59477;52.374;9.916;2023-05-10T04:53:15;51.75;45.46;77.63;;
71628;Laerm;59477;52.374;9.916;2023-05-10T04:55:17;52.26;45.68;74.84;;
71628;Laerm;59477;52.374;9.916;2023-05-10T04:57:17;50.21;45.91;64.61;;
71628;Laerm;59477;52.374;9.916;2023-05-10T04:59:18;50.63;44.75;64.70;;
71628;Laerm;59477;52.374;9.916;2023-05-10T05:01:18;49.92;45.38;62.57;;
71628;Laerm;59477;52.374;9.916;2023-05-10T05:03:20;50.51;44.76;60.90;;
71628;Laerm;59477;52.374;9.916;2023-05-10T05:05:39;52.68;44.44;66.44;;
71628;Laerm;59477;52.374;9.916;2023-05-10T05:07:40;51.99;45.46;67.32;;
71628;Laerm;59477;52.374;9.916;2023-05-10T05:09:40;50.89;45.03;67.94;;
71628;Laerm;59477;52.374;9.916;2023-05-10T05:11:41;50.15;45.60;71.05;;
71628;Laerm;59477;52.374;9.916;2023-05-10T05:13:43;50.50;45.43;71.58;;
71628;Laerm;59477;52.374;9.916;2023-05-10T05:15:44;51.81;46.00;66.42;;
71628;Laerm;59477;52.374;9.916;2023-05-10T05:17:44;49.97;46.02;62.83;;
71628;Laerm;59477;52.374;9.916;2023-05-10T05:20:03;49.68;44.31;68.73;;
71628;Laerm;59477;52.374;9.916;2023-05-10T05:22:06;53.33;44.28;71.09;;
71628;Laerm;59477;52.374;9.916;2023-05-10T05:24:06;49.75;45.10;61.95;;
71628;Laerm;59477;52.374;9.916;2023-05-10T05:26:07;50.76;45.20;71.61;;
71628;Laerm;59477;52.374;9.916;2023-05-10T05:28:08;51.98;45.92;76.62;;
71628;Laerm;59477;52.374;9.916;2023-05-10T05:30:27;57.65;46.01;70.81;;
71628;Laerm;59477;52.374;9.916;2023-05-10T05:32:27;55.12;47.37;76.56;;
71628;Laerm;59477;52.374;9.916;2023-05-10T05:34:46;54.26;48.90;76.38;;
71628;Laerm;59477;52.374;9.916;2023-05-10T05:37:05;59.98;48.03;73.07;;
71628;Laerm;59477;52.374;9.916;2023-05-10T05:39:06;53.36;47.69;72.94;;
71628;Laerm;59477;52.374;9.916;2023-05-10T05:41:07;54.06;47.65;75.82;;
71628;Laerm;59477;52.374;9.916;2023-05-10T05:43:26;53.76;45.50;70.08;;
71628;Laerm;59477;52.374;9.916;2023-05-10T05:45:26;52.56;46.17;72.25;;
71628;Laerm;59477;52.374;9.916;2023-05-10T05:47:27;51.03;46.52;67.18;;
71628;Laerm;59477;52.374;9.916;2023-05-10T05:49:27;50.92;45.25;69.76;;
71628;Laerm;59477;52.374;9.916;2023-05-10T05:51:47;51.80;44.89;66.70;;
71628;Laerm;59477;52.374;9.916;2023-05-10T05:53:49;53.01;45.13;69.36;;
71628;Laerm;59477;52.374;9.916;2023-05-10T05:56:08;52.37;44.69;71.37;;
71628;Laerm;59477;52.374;9.916;2023-05-10T05:58:09;51.81;45.17;71.03;;
71628;Laerm;59477;52.374;9.916;2023-05-10T06:00:10;52.63;44.41;75.29;;
71628;Laerm;59477;52.374;9.916;2023-05-10T06:02:11;53.59;46.62;76.95;;
71628;Laerm;59477;52.374;9.916;2023-05-10T06:04:11;53.19;45.67;75.11;;
71628;Laerm;59477;52.374;9.916;2023-05-10T06:06:12;52.92;45.63;76.99;;
71628;Laerm;59477;52.374;9.916;2023-05-10T06:08:13;52.55;44.95;75.00;;
71628;Laerm;59477;52.374;9.916;2023-05-10T06:10:14;55.06;44.84;77.64;;
71628;Laerm;59477;52.374;9.916;2023-05-10T06:12:14;50.74;44.53;69.92;;
71628;Laerm;59477;52.374;9.916;2023-05-10T06:14:15;51.91;44.64;76.91;;
71628;Laerm;59477;52.374;9.916;2023-05-10T06:16:15;52.09;44.73;76.39;;
71628;Laerm;59477;52.374;9.916;2023-05-10T06:18:16;54.14;45.61;77.82;;
71628;Laerm;59477;52.374;9.916;2023-05-10T06:20:35;52.46;45.03;76.70;;
71628;Laerm;59477;52.374;9.916;2023-05-10T06:22:35;53.91;45.49;71.57;;
71628;Laerm;59477;52.374;9.916;2023-05-10T06:24:36;52.03;45.43;77.28;;
71628;Laerm;59477;52.374;9.916;2023-05-10T06:26:36;51.89;44.87;71.05;;
71628;Laerm;59477;52.374;9.916;2023-05-10T06:28:37;48.64;43.52;64.50;;
71628;Laerm;59477;52.374;9.916;2023-05-10T06:30:40;47.65;43.73;65.76;;
71628;Laerm;59477;52.374;9.916;2023-05-10T06:32:41;48.00;44.06;63.58;;
71628;Laerm;59477;52.374;9.916;2023-05-10T06:35:02;48.67;43.28;61.66;;
71628;Laerm;59477;52.374;9.916;2023-05-10T06:37:21;47.34;42.68;64.35;;
71628;Laerm;59477;52.374;9.916;2023-05-10T06:39:21;50.29;41.62;71.62;;
71628;Laerm;59477;52.374;9.916;2023-05-10T06:41:22;47.09;43.04;65.22;;
71628;Laerm;59477;52.374;9.916;2023-05-10T06:43:23;47.67;42.68;65.26;;
71628;Laerm;59477;52.374;9.916;2023-05-10T06:45:43;49.67;42.59;74.55;;
71628;Laerm;59477;52.374;9.916;2023-05-10T06:48:02;48.91;44.03;69.37;;
71628;Laerm;59477;52.374;9.916;2023-05-10T06:50:02;55.06;44.43;68.74;;
71628;Laerm;59477;52.374;9.916;2023-05-10T06:52:22;50.78;43.71;71.30;;
71628;Laerm;59477;52.374;9.916;2023-05-10T06:54:23;49.70;43.90;68.53;;
71628;Laerm;59477;52.374;9.916;2023-05-10T06:56:24;49.96;43.33;74.32;;
71628;Laerm;59477;52.374;9.916;2023-05-10T06:58:24;50.01;43.74;72.68;;
71628;Laerm;59477;52.374;9.916;2023-05-10T07:00:25;49.44;43.12;69.65;;
71628;Laerm;59477;52.374;9.916;2023-05-10T07:02:26;49.37;43.48;63.26;;
71628;Laerm;59477;52.374;9.916;2023-05-10T07:04:26;49.91;42.82;65.36;;
71628;Laerm;59477;52.374;9.916;2023-05-10T07:06:27;53.46;43.17;70.43;;
71628;Laerm;59477;52.374;9.916;2023-05-10T07:08:32;48.97;43.11;70.50;;
71628;Laerm;59477;52.374;9.916;2023-05-10T07:10:32;47.15;41.75;67.88;;
71628;Laerm;59477;52.374;9.916;2023-05-10T07:12:33;47.95;43.09;65.06;;
71628;Laerm;59477;52.374;9.916;2023-05-10T07:14:34;50.21;44.07;69.15;;
71628;Laerm;59477;52.374;9.916;2023-05-10T07:16:34;49.77;44.00;69.79;;
71628;Laerm;59477;52.374;9.916;2023-05-10T07:18:35;49.19;43.05;68.80;;
71628;Laerm;59477;52.374;9.916;2023-05-10T07:20:36;49.14;43.77;67.83;;
71628;Laerm;59477;52.374;9.916;2023-05-10T07:22:54;49.48;43.73;66.60;;
71628;Laerm;59477;52.374;9.916;2023-05-10T07:24:55;48.50;43.54;67.45;;
71628;Laerm;59477;52.374;9.916;2023-05-10T07:26:56;48.26;43.31;66.73;;
71628;Laerm;59477;52.374;9.916;2023-05-10T07:28:56;47.99;43.07;61.62;;
71628;Laerm;59477;52.374;9.916;2023-05-10T07:30:57;49.27;44.11;64.67;;
71628;Laerm;59477;52.374;9.916;2023-05-10T07:32:58;49.57;43.05;68.81;;
71628;Laerm;59477;52.374;9.916;2023-05-10T07:35:17;48.25;42.79;64.23;;
71628;Laerm;59477;52.374;9.916;2023-05-10T07:37:18;51.69;42.64;68.85;;
71628;Laerm;59477;52.374;9.916;2023-05-10T07:39:37;51.94;43.16;72.79;;
71628;Laerm;59477;52.374;9.916;2023-05-10T07:41:37;52.17;45.46;71.99;;
71628;Laerm;59477;52.374;9.916;2023-05-10T07:43:38;50.65;44.22;70.32;;
71628;Laerm;59477;52.374;9.916;2023-05-10T07:45:40;49.93;42.77;66.87;;
71628;Laerm;59477;52.374;9.916;2023-05-10T07:47:40;53.03;42.59;67.54;;
71628;Laerm;59477;52.374;9.916;2023-05-10T07:49:41;47.31;42.38;66.35;;
71628;Laerm;59477;52.374;9.916;2023-05-10T07:51:41;47.23;42.66;68.07;;
71628;Laerm;59477;52.374;9.916;2023-05-10T07:53:42;48.49;42.92;65.19;;
71628;Laerm;59477;52.374;9.916;2023-05-10T07:55:43;54.16;42.66;76.58;;
71628;Laerm;59477;52.374;9.916;2023-05-10T07:57:43;46.56;42.15;65.67;;
71628;Laerm;59477;52.374;9.916;2023-05-10T07:59:44;47.37;42.53;67.31;;
71628;Laerm;59477;52.374;9.916;2023-05-10T08:01:45;47.44;42.96;67.79;;
71628;Laerm;59477;52.374;9.916;2023-05-10T08:03:46;47.88;42.46;65.07;;
71628;Laerm;59477;52.374;9.916;2023-05-10T08:06:05;47.69;42.25;67.50;;
71628;Laerm;59477;52.374;9.916;2023-05-10T08:08:06;46.78;42.18;64.59;;
71628;Laerm;59477;52.374;9.916;2023-05-10T08:10:25;48.28;41.68;66.29;;
71628;Laerm;59477;52.374;9.916;2023-05-10T08:12:26;47.91;42.13;65.46;;
71628;Laerm;59477;52.374;9.916;2023-05-10T08:14:27;47.84;42.91;61.98;;
71628;Laerm;59477;52.374;9.916;2023-05-10T08:16:28;47.20;42.84;65.92;;
71628;Laerm;59477;52.374;9.916;2023-05-10T08:18:29;46.05;42.14;62.18;;
71628;Laerm;59477;52.374;9.916;2023-05-10T08:20:29;46.79;41.89;65.76;;
71628;Laerm;59477;52.374;9.916;2023-05-10T08:22:30;54.31;42.04;75.46;;
71628;Laerm;59477;52.374;9.916;2023-05-10T08:24:30;46.20;42.52;61.07;;
71628;Laerm;59477;52.374;9.916;2023-05-10T08:26:32;46.61;42.72;60.34;;
71628;Laerm;59477;52.374;9.916;2023-05-10T08:28:32;48.60;43.78;60.62;;
71628;Laerm;59477;52.374;9.916;2023-05-10T08:30:33;48.24;43.13;63.68;;
71628;Laerm;59477;52.374;9.916;2023-05-10T08:32:34;48.99;42.83;62.54;;
71628;Laerm;59477;52.374;9.916;2023-05-10T08:34:35;49.22;43.86;62.03;;
71628;Laerm;59477;52.374;9.916;2023-05-10T08:36:35;48.34;42.84;61.51;;
71628;Laerm;59477;52.374;9.916;2023-05-10T08:38:37;49.10;44.24;59.63;;
71628;Laerm;59477;52.374;9.916;2023-05-10T08:40:39;48.91;44.36;60.11;;
71628;Laerm;59477;52.374;9.916;2023-05-10T08:42:43;50.04;44.61;59.53;;
71628;Laerm;59477;52.374;9.916;2023-05-10T08:44:45;49.69;45.40;60.58;;
71628;Laerm;59477;52.374;9.916;2023-05-10T08:46:49;50.21;45.06;58.40;;
71628;Laerm;59477;52.374;9.916;2023-05-10T08:49:13;50.69;45.24;62.75;;
71628;Laerm;59477;52.374;9.916;2023-05-10T08:51:15;48.96;44.43;60.16;;
71628;Laerm;59477;52.374;9.916;2023-05-10T08:53:16;48.27;43.91;61.51;;
71628;Laerm;59477;52.374;9.916;2023-05-10T08:55:17;48.65;44.06;59.00;;
71628;Laerm;59477;52.374;9.916;2023-05-10T08:57:18;47.49;43.19;61.34;;
71628;Laerm;59477;52.374;9.916;2023-05-10T08:59:19;48.34;44.12;58.05;;
71628;Laerm;59477;52.374;9.916;2023-05-10T09:01:19;50.22;43.97;69.15;;
71628;Laerm;59477;52.374;9.916;2023-05-10T09:03:21;47.85;42.15;63.60;;
71628;Laerm;59477;52.374;9.916;2023-05-10T09:05:21;52.10;42.49;69.39;;
71628;Laerm;59477;52.374;9.916;2023-05-10T09:07:22;48.66;43.46;57.87;;
71628;Laerm;59477;52.374;9.916;2023-05-10T09:09:41;47.84;42.36;59.72;;
71628;Laerm;59477;52.374;9.916;2023-05-10T09:11:42;47.08;42.94;59.34;;
71628;Laerm;59477;52.374;9.916;2023-05-10T09:13:42;47.89;42.77;57.71;;
71628;Laerm;59477;52.374;9.916;2023-05-10T09:15:44;50.30;44.57;67.46;;
71628;Laerm;59477;52.374;9.916;2023-05-10T09:17:45;50.29;44.02;68.46;;
71628;Laerm;59477;52.374;9.916;2023-05-10T09:20:05;48.06;42.95;60.67;;
71628;Laerm;59477;52.374;9.916;2023-05-10T09:22:06;49.39;43.55;57.61;;
71628;Laerm;59477;52.374;9.916;2023-05-10T09:24:07;47.53;42.94;56.85;;
71628;Laerm;59477;52.374;9.916;2023-05-10T09:26:26;49.04;43.82;55.73;;
71628;Laerm;59477;52.374;9.916;2023-05-10T09:28:27;46.20;40.87;62.94;;
71628;Laerm;59477;52.374;9.916;2023-05-10T09:30:31;48.53;42.08;65.54;;
71628;Laerm;59477;52.374;9.916;2023-05-10T09:32:50;52.81;43.39;82.22;;
71628;Laerm;59477;52.374;9.916;2023-05-10T09:34:51;49.59;44.26;63.72;;
71628;Laerm;59477;52.374;9.916;2023-05-10T09:37:01;50.79;44.02;65.27;;
71628;Laerm;59477;52.374;9.916;2023-05-10T09:39:02;48.55;43.86;58.87;;
71628;Laerm;59477;52.374;9.916;2023-05-10T09:41:03;50.28;43.63;58.36;;
71628;Laerm;59477;52.374;9.916;2023-05-10T09:43:23;49.26;42.80;56.65;;
71628;Laerm;59477;52.374;9.916;2023-05-10T09:45:42;48.73;43.27;59.50;;
71628;Laerm;59477;52.374;9.916;2023-05-10T09:47:45;49.02;44.63;66.62;;
71628;Laerm;59477;52.374;9.916;2023-05-10T09:49:49;50.18;44.41;66.72;;
71628;Laerm;59477;52.374;9.916;2023-05-10T09:52:03;48.69;42.02;59.82;;
71628;Laerm;59477;52.374;9.916;2023-05-10T09:54:14;47.41;42.16;57.02;;
71628;Laerm;59477;52.374;9.916;2023-05-10T09:56:34;48.62;43.10;58.32;;
71628;Laerm;59477;52.374;9.916;2023-05-10T09:58:36;46.44;41.73;54.08;;
71628;Laerm;59477;52.374;9.916;2023-05-10T10:00:39;47.41;41.59;62.34;;
71628;Laerm;59477;52.374;9.916;2023-05-10T10:02:40;48.19;42.88;59.91;;
71628;Laerm;59477;52.374;9.916;2023-05-10T10:04:41;45.84;41.69;63.30;;
71628;Laerm;59477;52.374;9.916;2023-05-10T10:06:41;45.54;41.12;53.48;;
71628;Laerm;59477;52.374;9.916;2023-05-10T10:08:42;52.50;41.58;66.80;;
71628;Laerm;59477;52.374;9.916;2023-05-10T10:10:43;50.21;41.36;64.42;;
71628;Laerm;59477;52.374;9.916;2023-05-10T10:13:05;45.88;40.76;57.13;;
71628;Laerm;59477;52.374;9.916;2023-05-10T10:15:06;46.73;41.50;64.21;;
71628;Laerm;59477;52.374;9.916;2023-05-10T10:17:25;45.61;41.10;58.02;;
71628;Laerm;59477;52.374;9.916;2023-05-10T10:19:28;45.56;41.80;54.20;;
71628;Laerm;59477;52.374;9.916;2023-05-10T10:21:48;45.94;41.20;59.99;;
71628;Laerm;59477;52.374;9.916;2023-05-10T10:23:49;47.59;40.64;65.93;;
71628;Laerm;59477;52.374;9.916;2023-05-10T10:25:50;44.72;41.05;51.64;;
71628;Laerm;59477;52.374;9.916;2023-05-10T10:32:22;45.38;40.78;58.38;;
71628;Laerm;59477;52.374;9.916;2023-05-10T10:34:26;47.36;42.46;61.14;;
71628;Laerm;59477;52.374;9.916;2023-05-10T10:36:28;45.10;41.49;52.06;;
71628;Laerm;59477;52.374;9.916;2023-05-10T10:40:48;45.29;39.65;54.75;;
71628;Laerm;59477;52.374;9.916;2023-05-10T10:42:48;44.03;39.12;54.48;;
71628;Laerm;59477;52.374;9.916;2023-05-10T10:44:53;44.01;39.06;53.14;;
71628;Laerm;59477;52.374;9.916;2023-05-10T10:49:19;44.48;40.43;50.22;;
71628;Laerm;59477;52.374;9.916;2023-05-10T10:51:19;44.21;39.55;52.13;;
71628;Laerm;59477;52.374;9.916;2023-05-10T10:53:20;48.03;38.85;59.77;;
71628;Laerm;59477;52.374;9.916;2023-05-10T10:55:48;45.70;36.40;61.74;;
71628;Laerm;59477;52.374;9.916;2023-05-10T10:57:50;46.00;36.88;63.35;;
71628;Laerm;59477;52.374;9.916;2023-05-10T10:59:53;46.08;36.61;65.49;;
71628;Laerm;59477;52.374;9.916;2023-05-10T11:01:54;44.01;37.01;56.36;;
71628;Laerm;59477;52.374;9.916;2023-05-10T11:04:39;43.47;38.35;56.90;;
71628;Laerm;59477;52.374;9.916;2023-05-10T11:06:17;42.31;36.58;51.73;;
71628;Laerm;59477;52.374;9.916;2023-05-10T11:08:29;43.92;37.55;63.76;;
71628;Laerm;59477;52.374;9.916;2023-05-10T11:10:30;43.46;39.08;55.02;;
71628;Laerm;59477;52.374;9.916;2023-05-10T11:12:31;44.12;36.92;55.51;;
71628;Laerm;59477;52.374;9.916;2023-05-10T11:14:31;41.96;35.51;53.61;;
71628;Laerm;59477;52.374;9.916;2023-05-10T11:16:50;39.90;35.07;47.95;;
71628;Laerm;59477;52.374;9.916;2023-05-10T11:19:01;42.60;36.53;58.86;;
71628;Laerm;59477;52.374;9.916;2023-05-10T11:21:07;43.57;38.34;65.43;;
71628;Laerm;59477;52.374;9.916;2023-05-10T11:23:11;42.39;36.40;54.04;;
71628;Laerm;59477;52.374;9.916;2023-05-10T11:25:13;41.67;35.96;68.05;;
71628;Laerm;59477;52.374;9.916;2023-05-10T11:27:13;41.33;37.11;49.23;;
71628;Laerm;59477;52.374;9.916;2023-05-10T11:29:14;48.42;35.88;67.04;;
71628;Laerm;59477;52.374;9.916;2023-05-10T11:31:15;41.94;35.69;52.94;;
71628;Laerm;59477;52.374;9.916;2023-05-10T11:33:16;41.74;35.48;61.88;;
71628;Laerm;59477;52.374;9.916;2023-05-10T11:35:17;48.43;39.09;68.56;;
71628;Laerm;59477;52.374;9.916;2023-05-10T11:37:40;53.93;36.24;66.13;;
71628;Laerm;59477;52.374;9.916;2023-05-10T11:39:45;43.73;35.21;60.52;;
71628;Laerm;59477;52.374;9.916;2023-05-10T11:42:05;44.76;36.64;63.47;;
71628;Laerm;59477;52.374;9.916;2023-05-10T11:44:05;43.23;35.74;56.61;;
71628;Laerm;59477;52.374;9.916;2023-05-10T11:46:25;43.99;37.11;64.26;;
71628;Laerm;59477;52.374;9.916;2023-05-10T11:48:26;44.40;35.55;60.18;;
71628;Laerm;59477;52.374;9.916;2023-05-10T11:50:27;44.43;35.54;61.81;;
71628;Laerm;59477;52.374;9.916;2023-05-10T11:52:28;43.07;36.35;59.56;;
71628;Laerm;59477;52.374;9.916;2023-05-10T11:54:29;45.98;38.01;62.26;;
71628;Laerm;59477;52.374;9.916;2023-05-10T11:56:29;45.66;38.02;60.33;;
71628;Laerm;59477;52.374;9.916;2023-05-10T11:58:32;56.03;36.65;74.88;;
71628;Laerm;59477;52.374;9.916;2023-05-10T12:00:51;45.18;35.21;62.52;;
71628;Laerm;59477;52.374;9.916;2023-05-10T12:02:52;42.70;35.28;59.74;;
71628;Laerm;59477;52.374;9.916;2023-05-10T12:04:53;51.10;36.03;69.42;;
71628;Laerm;59477;52.374;9.916;2023-05-10T12:07:13;54.38;36.21;70.93;;